Time;durP1;ratioP1;P1;durP2;ratioP2;P2;SDS_P1;SDS_P2;PMS_P1;PMS_P2;Temp;Humidity;BMP_temperature;BMP_pressure;BME280_temperature;BME280_humidity;BME280_pressure;Samples;Min_cycle;Max_cycle;Signal;HPM_P1;HPM_P2
2021/07/24 00:00:57;;;;;;;9.43;4.40;;;19.50;99.70;;;;;;5054165;28;20446;-67
2021/07/24 00:03:26;;;;;;;7.13;3.80;;;19.40;99.70;;;;;;5069670;28;20988;-67
2021/07/24 00:05:53;;;;;;;15.60;4.60;;;19.50;99.70;;;;;;5069464;28;20512;-67
2021/07/24 00:08:20;;;;;;;11.23;4.83;;;19.60;99.70;;;;;;5069822;28;20451;-67
2021/07/24 00:10:47;;;;;;;14.70;4.73;;;19.50;99.70;;;;;;5067067;28;20977;-67
2021/07/24 00:13:14;;;;;;;8.50;4.53;;;19.60;99.70;;;;;;5049519;28;20451;-67
2021/07/24 00:15:41;;;;;;;11.37;5.30;;;19.60;99.70;;;;;;5049631;28;20464;-67
2021/07/24 00:18:08;;;;;;;13.23;5.07;;;19.70;99.70;;;;;;5049728;28;20455;-67
2021/07/24 00:20:36;;;;;;;9.37;4.60;;;19.60;99.70;;;;;;5050386;28;20446;-67
2021/07/24 00:23:03;;;;;;;11.57;5.10;;;19.60;99.70;;;;;;5069461;28;20478;-67
2021/07/24 00:25:30;;;;;;;9.77;4.47;;;19.70;99.70;;;;;;5069238;28;21038;-67
2021/07/24 00:27:57;;;;;;;12.77;5.00;;;19.70;99.70;;;;;;5070105;28;20443;-67
2021/07/24 00:30:24;;;;;;;12.17;5.40;;;19.70;99.70;;;;;;5069652;28;20462;-67
2021/07/24 00:32:51;;;;;;;10.00;5.10;;;19.60;99.70;;;;;;5050259;28;20447;-67
2021/07/24 00:35:18;;;;;;;11.70;4.93;;;19.50;99.70;;;;;;5049005;28;20494;-67
2021/07/24 00:37:46;;;;;;;11.73;4.90;;;19.50;99.70;;;;;;5049796;28;20447;-67
2021/07/24 00:40:15;;;;;;;14.80;4.83;;;19.50;99.70;;;;;;5049453;28;20448;-67
2021/07/24 00:42:44;;;;;;;10.47;4.80;;;19.50;99.70;;;;;;5067070;28;20992;-67
2021/07/24 00:45:14;;;;;;;12.97;5.23;;;19.40;99.70;;;;;;5070312;28;20455;-67
2021/07/24 00:47:44;;;;;;;10.70;4.30;;;19.40;99.70;;;;;;5073443;28;20539;-67
2021/07/24 00:50:14;;;;;;;13.60;5.70;;;19.30;99.70;;;;;;5073694;28;20434;-67
2021/07/24 00:52:42;;;;;;;13.40;5.30;;;19.30;99.70;;;;;;5055448;28;20462;-67
2021/07/24 00:55:12;;;;;;;12.03;5.00;;;19.20;99.70;;;;;;5053148;28;20559;-67
2021/07/24 00:57:40;;;;;;;10.60;4.43;;;19.20;99.70;;;;;;5053102;28;20455;-67
2021/07/24 01:00:09;;;;;;;10.73;4.67;;;19.20;99.70;;;;;;5062440;28;20450;-67
2021/07/24 01:02:35;;;;;;;12.80;5.50;;;19.20;99.70;;;;;;5072649;28;20447;-67
2021/07/24 01:05:04;;;;;;;11.23;4.70;;;19.20;99.70;;;;;;5072969;28;20469;-67
2021/07/24 01:07:33;;;;;;;11.83;5.10;;;19.30;99.70;;;;;;5073004;28;20949;-67
2021/07/24 01:10:00;;;;;;;8.47;4.43;;;19.30;99.70;;;;;;5064300;28;20451;-67
2021/07/24 01:12:29;;;;;;;11.63;5.03;;;19.30;99.70;;;;;;5052932;28;20448;-67
2021/07/24 01:14:56;;;;;;;10.93;4.77;;;19.40;99.70;;;;;;5068515;28;22174;-67
2021/07/24 01:17:22;;;;;;;15.13;5.63;;;19.30;99.70;;;;;;5073250;28;20442;-67
2021/07/24 01:19:49;;;;;;;11.87;4.40;;;19.30;99.70;;;;;;5072851;28;20450;-67
2021/07/24 01:22:17;;;;;;;13.77;5.40;;;19.30;99.70;;;;;;5072770;28;20794;-67
2021/07/24 01:24:44;;;;;;;10.43;5.10;;;19.30;99.70;;;;;;5057813;28;21037;-67
2021/07/24 01:27:11;;;;;;;15.00;4.80;;;19.40;99.70;;;;;;5052644;28;20443;-67
2021/07/24 01:29:38;;;;;;;13.47;5.60;;;19.30;99.70;;;;;;5052698;28;20450;-67
2021/07/24 01:32:06;;;;;;;10.20;4.60;;;19.20;99.70;;;;;;5052627;28;20459;-67
2021/07/24 01:34:33;;;;;;;12.10;5.17;;;19.20;99.70;;;;;;5064057;28;20450;-67
2021/07/24 01:37:00;;;;;;;11.70;5.00;;;19.20;99.70;;;;;;5072211;28;20685;-67
2021/07/24 01:39:29;;;;;;;10.00;4.50;;;19.30;99.70;;;;;;5072697;28;20450;-67
2021/07/24 01:41:56;;;;;;;10.30;4.63;;;19.10;99.70;;;;;;5072231;28;20443;-67
2021/07/24 01:44:22;;;;;;;14.17;5.97;;;19.10;99.70;;;;;;5061339;28;20479;-67
2021/07/24 01:46:49;;;;;;;11.73;5.10;;;19.10;99.70;;;;;;5052105;28;20529;-67
2021/07/24 01:52:46;;;;;;;14.00;5.50;;;19.10;99.70;;;;;;5052495;28;20447;-67
2021/07/24 01:55:03;;;;;;;9.63;4.30;;;19.20;99.70;;;;;;5032107;28;20531;-67
2021/07/24 01:57:31;;;;;;;11.97;5.27;;;19.20;99.70;;;;;;5030966;28;20455;-67
2021/07/24 02:00:01;;;;;;;12.00;4.80;;;19.20;99.70;;;;;;5031983;28;20449;-67
2021/07/24 02:02:31;;;;;;;9.93;4.83;;;19.20;99.70;;;;;;5034575;28;20449;-66
2021/07/24 02:05:00;;;;;;;8.33;4.43;;;19.30;99.70;;;;;;5071602;28;20908;-67
2021/07/24 02:07:28;;;;;;;9.83;4.90;;;19.20;99.70;;;;;;5072240;28;20442;-67
2021/07/24 02:09:54;;;;;;;14.07;4.97;;;19.00;99.70;;;;;;5072096;28;20447;-67
2021/07/24 02:12:22;;;;;;;11.93;5.10;;;18.90;99.70;;;;;;5071392;28;20439;-67
2021/07/24 02:14:50;;;;;;;17.97;5.90;;;18.90;99.70;;;;;;5071316;28;20439;-67
2021/07/24 02:17:16;;;;;;;13.77;5.53;;;18.90;99.70;;;;;;5071932;28;20910;-67
2021/07/24 02:19:44;;;;;;;10.90;4.40;;;18.80;99.70;;;;;;5071777;28;20445;-66
2021/07/24 02:22:11;;;;;;;10.70;5.23;;;18.80;99.70;;;;;;5071745;28;20447;-67
2021/07/24 02:24:37;;;;;;;9.53;4.97;;;18.80;99.70;;;;;;5052353;28;20480;-66
2021/07/24 02:27:07;;;;;;;12.97;5.27;;;18.80;99.70;;;;;;5051476;28;20518;-67
2021/07/24 02:29:35;;;;;;;11.63;5.13;;;18.70;99.70;;;;;;5051685;28;20451;-67
2021/07/24 02:32:03;;;;;;;12.00;4.70;;;18.70;99.70;;;;;;5051475;28;20480;-67
2021/07/24 02:34:30;;;;;;;12.40;5.33;;;18.70;99.70;;;;;;5068155;28;20872;-66
2021/07/24 02:36:56;;;;;;;14.90;5.80;;;18.80;99.70;;;;;;5071306;28;20477;-67
2021/07/24 02:39:23;;;;;;;11.57;5.13;;;18.80;99.70;;;;;;5071707;28;20450;-67
2021/07/24 02:41:50;;;;;;;11.87;4.93;;;18.80;99.70;;;;;;5071440;28;20454;-67
2021/07/24 02:44:16;;;;;;;11.00;5.10;;;18.80;99.70;;;;;;5055203;28;20486;-67
2021/07/24 02:46:44;;;;;;;10.97;5.13;;;18.80;99.70;;;;;;5051330;28;20997;-67
2021/07/24 02:49:12;;;;;;;12.03;5.53;;;18.70;99.70;;;;;;5051201;28;20451;-67
2021/07/24 02:51:38;;;;;;;13.47;5.30;;;18.70;99.70;;;;;;5051420;28;20542;-67
2021/07/24 02:54:05;;;;;;;10.90;4.67;;;18.80;99.70;;;;;;5063745;28;20439;-67
2021/07/24 02:56:32;;;;;;;10.53;4.60;;;18.80;99.70;;;;;;5071078;28;20470;-67
2021/07/24 02:58:58;;;;;;;11.60;5.40;;;18.90;99.70;;;;;;5070547;28;20446;-67
2021/07/24 03:01:25;;;;;;;12.57;6.40;;;19.00;99.70;;;;;;5071346;28;20446;-67
2021/07/24 03:03:53;;;;;;;14.20;6.10;;;19.20;99.70;;;;;;5059445;28;20476;-67
2021/07/24 03:06:20;;;;;;;12.33;5.03;;;19.20;99.70;;;;;;5050828;28;20517;-67
2021/07/24 03:08:46;;;;;;;7.87;4.63;;;19.10;99.70;;;;;;5050955;28;20447;-67
2021/07/24 03:11:13;;;;;;;14.03;5.50;;;19.10;99.70;;;;;;5050835;28;20836;-67
2021/07/24 03:13:40;;;;;;;12.87;5.30;;;19.10;99.70;;;;;;5059707;28;20800;-67
2021/07/24 03:16:06;;;;;;;8.57;4.87;;;19.00;99.70;;;;;;5070230;28;20477;-67
2021/07/24 03:18:33;;;;;;;13.97;6.03;;;19.00;99.70;;;;;;5070915;28;20451;-67
2021/07/24 03:21:01;;;;;;;13.90;5.90;;;19.00;99.70;;;;;;5070566;28;20476;-67
2021/07/24 03:23:28;;;;;;;11.27;5.10;;;19.00;99.70;;;;;;5062971;28;20896;-67
2021/07/24 03:25:55;;;;;;;11.17;4.80;;;19.00;99.70;;;;;;5050113;28;20468;-67
2021/07/24 03:28:21;;;;;;;13.10;5.23;;;18.90;99.70;;;;;;5050535;28;20440;-67
2021/07/24 03:30:49;;;;;;;12.70;5.63;;;18.90;99.70;;;;;;5050729;28;20793;-67
2021/07/24 03:33:16;;;;;;;11.53;4.77;;;18.90;99.70;;;;;;5069193;28;20447;-67
2021/07/24 03:35:43;;;;;;;13.53;6.20;;;18.80;99.70;;;;;;5069824;28;20474;-67
2021/07/24 03:38:11;;;;;;;13.10;5.30;;;18.80;99.70;;;;;;5070135;28;20443;-67
2021/07/24 03:40:38;;;;;;;14.77;6.13;;;18.80;99.70;;;;;;5070385;28;20446;-67
2021/07/24 03:43:05;;;;;;;12.00;4.80;;;18.80;99.70;;;;;;5051970;28;20448;-67
2021/07/24 03:45:33;;;;;;;14.90;5.67;;;18.80;99.70;;;;;;5049650;28;20479;-67
2021/07/24 03:48:01;;;;;;;11.73;5.03;;;18.80;99.70;;;;;;5050129;28;20485;-68
2021/07/24 03:50:27;;;;;;;10.20;5.03;;;18.70;99.70;;;;;;5052297;28;20955;-67
2021/07/24 03:52:54;;;;;;;13.03;5.13;;;18.70;99.70;;;;;;5070284;28;20815;-67
2021/07/24 03:55:22;;;;;;;12.90;5.13;;;18.70;99.70;;;;;;5069351;28;20467;-67
2021/07/24 03:57:51;;;;;;;16.80;5.13;;;18.70;99.70;;;;;;5070252;28;20822;-67
2021/07/24 04:00:18;;;;;;;13.20;4.80;;;18.70;99.70;;;;;;5054272;28;20470;-67
2021/07/24 04:02:45;;;;;;;13.80;5.67;;;18.70;99.70;;;;;;5050029;28;20450;-67
2021/07/24 04:05:12;;;;;;;11.60;5.20;;;18.70;99.70;;;;;;5049304;28;20483;-67
2021/07/24 04:07:39;;;;;;;14.93;6.40;;;18.80;99.70;;;;;;5050067;28;20802;-67
2021/07/24 04:10:08;;;;;;;12.20;5.10;;;18.80;99.70;;;;;;5062695;28;20443;-67
2021/07/24 04:12:39;;;;;;;14.13;5.60;;;19.00;99.70;;;;;;5069843;28;20447;-67
2021/07/24 04:15:07;;;;;;;10.90;5.07;;;19.00;99.70;;;;;;5069669;28;20470;-67
2021/07/24 04:17:34;;;;;;;13.10;5.20;;;19.00;99.70;;;;;;5069727;28;20447;-67
2021/07/24 04:20:02;;;;;;;11.40;5.57;;;19.00;99.70;;;;;;5058682;28;20493;-67
2021/07/24 04:22:29;;;;;;;12.70;5.37;;;19.00;99.70;;;;;;5053913;28;20455;-67
2021/07/24 04:24:55;;;;;;;10.33;4.67;;;19.00;99.70;;;;;;5053543;28;20865;-67
2021/07/24 04:27:22;;;;;;;13.47;6.27;;;18.90;99.70;;;;;;5053840;28;20443;-67
2021/07/24 04:29:50;;;;;;;10.17;5.17;;;18.80;99.70;;;;;;5063791;28;20455;-67
2021/07/24 04:32:17;;;;;;;12.13;5.33;;;18.80;99.70;;;;;;5073743;28;20761;-67
2021/07/24 04:34:43;;;;;;;11.63;5.30;;;18.80;99.70;;;;;;5073137;28;20434;-68
2021/07/24 04:37:10;;;;;;;11.90;5.60;;;18.80;99.70;;;;;;5073424;28;20461;-67
2021/07/24 04:42:05;;;;;;;10.80;5.03;;;18.80;99.70;;;;;;5113544;28;20465;-64
2021/07/24 04:44:32;;;;;;;12.93;5.47;;;18.80;99.70;;;;;;5116240;28;20472;-64
2021/07/24 04:47:00;;;;;;;12.10;4.90;;;18.80;99.70;;;;;;5119457;28;20456;-65
2021/07/24 04:49:27;;;;;;;10.53;5.23;;;18.80;99.70;;;;;;5120519;28;20449;-60
2021/07/24 04:51:53;;;;;;;12.60;5.53;;;18.90;99.70;;;;;;5121719;28;20447;-65
2021/07/24 04:54:20;;;;;;;13.60;5.63;;;18.90;99.70;;;;;;5120302;28;20441;-65
2021/07/24 04:56:47;;;;;;;12.90;6.10;;;18.80;99.70;;;;;;5120234;28;20452;-63
2021/07/24 04:59:14;;;;;;;12.47;5.60;;;18.80;99.70;;;;;;5105527;28;20735;-65
2021/07/24 05:01:41;;;;;;;13.03;5.03;;;18.80;99.70;;;;;;5092057;28;20467;-65
2021/07/24 05:04:09;;;;;;;12.67;5.23;;;18.80;99.70;;;;;;5095287;28;20992;-59
2021/07/24 05:06:37;;;;;;;12.37;4.93;;;18.90;99.70;;;;;;5098287;28;20445;-64
2021/07/24 05:09:06;;;;;;;11.67;5.37;;;19.00;99.70;;;;;;5107684;28;20883;-63
2021/07/24 05:11:34;;;;;;;10.10;5.30;;;19.10;99.70;;;;;;5120869;28;20464;-66
2021/07/24 05:14:00;;;;;;;10.27;4.70;;;19.10;99.70;;;;;;5120833;28;20437;-64
2021/07/24 05:16:27;;;;;;;12.77;6.00;;;19.00;99.70;;;;;;5121359;28;20532;-65
2021/07/24 05:18:56;;;;;;;11.60;5.10;;;18.90;99.70;;;;;;5110822;28;20948;-65
2021/07/24 05:21:24;;;;;;;15.67;6.10;;;18.90;99.70;;;;;;5121819;28;20493;-66
2021/07/24 05:23:50;;;;;;;11.27;5.17;;;19.00;99.70;;;;;;5115060;28;20445;-63
2021/07/24 05:26:17;;;;;;;13.57;5.20;;;19.10;99.70;;;;;;5119917;28;20445;-65
2021/07/24 05:28:44;;;;;;;10.67;5.30;;;19.10;99.70;;;;;;5121005;28;20441;-63
2021/07/24 05:31:17;;;;;;;12.57;5.00;;;19.30;99.70;;;;;;5120920;28;21007;-65
2021/07/24 05:33:44;;;;;;;14.00;6.00;;;19.40;99.70;;;;;;5114415;28;20543;-63
2021/07/24 05:36:11;;;;;;;11.00;5.30;;;19.60;99.70;;;;;;5100203;28;20440;-65
2021/07/24 05:38:39;;;;;;;11.03;4.80;;;19.70;99.70;;;;;;5099782;28;20933;-64
2021/07/24 05:41:06;;;;;;;9.87;5.07;;;19.70;99.70;;;;;;5100216;28;20883;-64
2021/07/24 05:43:33;;;;;;;11.87;4.60;;;19.70;99.70;;;;;;5104413;28;20437;-61
2021/07/24 05:46:01;;;;;;;13.70;5.80;;;19.60;99.70;;;;;;5119912;28;20485;-65
2021/07/24 05:48:27;;;;;;;11.73;5.10;;;19.60;99.70;;;;;;5121007;28;20850;-64
2021/07/24 05:50:55;;;;;;;12.07;5.47;;;19.70;99.70;;;;;;5120778;28;20461;-61
2021/07/24 05:53:22;;;;;;;11.10;5.67;;;19.70;99.70;;;;;;5119620;28;20441;-64
2021/07/24 05:55:50;;;;;;;9.93;5.30;;;19.90;99.70;;;;;;5119456;28;20441;-64
2021/07/24 05:58:16;;;;;;;14.80;5.30;;;20.00;99.70;;;;;;5120634;28;20449;-63
2021/07/24 06:00:43;;;;;;;14.27;5.60;;;20.10;99.70;;;;;;5120145;28;20461;-64
2021/07/24 06:03:10;;;;;;;12.27;5.00;;;20.20;99.70;;;;;;5118748;28;20445;-65
2021/07/24 06:05:36;;;;;;;12.63;5.47;;;20.20;99.70;;;;;;5119519;28;20492;-62
2021/07/24 06:08:03;;;;;;;12.47;5.40;;;20.40;99.70;;;;;;5121455;28;20463;-63
2021/07/24 06:10:30;;;;;;;11.10;4.83;;;20.40;99.70;;;;;;5119831;28;20874;-65
2021/07/24 06:12:58;;;;;;;12.80;5.17;;;20.40;99.70;;;;;;5117780;28;20445;-64
2021/07/24 06:15:25;;;;;;;13.33;5.80;;;20.30;99.70;;;;;;5098235;28;20438;-63
2021/07/24 06:17:52;;;;;;;12.23;5.27;;;20.30;99.70;;;;;;5097012;28;21055;-63
2021/07/24 06:20:19;;;;;;;11.63;5.80;;;20.10;99.70;;;;;;5097132;28;20462;-64
2021/07/24 06:22:45;;;;;;;16.37;6.67;;;20.00;99.70;;;;;;5097206;28;20472;-64
2021/07/24 06:25:13;;;;;;;14.07;6.10;;;20.00;99.70;;;;;;5113879;28;21022;-63
2021/07/24 06:27:39;;;;;;;15.83;6.20;;;19.90;99.70;;;;;;5117463;28;20445;-63
2021/07/24 06:30:09;;;;;;;17.73;5.00;;;19.90;99.70;;;;;;5117275;28;20845;-63
2021/07/24 06:32:36;;;;;;;10.47;5.40;;;20.00;99.70;;;;;;5116655;28;20518;-64
2021/07/24 06:35:03;;;;;;;13.80;5.70;;;20.00;99.70;;;;;;5114904;28;20445;-62
2021/07/24 06:37:30;;;;;;;14.17;5.83;;;20.10;99.70;;;;;;5116762;28;20486;-63
2021/07/24 06:39:56;;;;;;;12.53;5.80;;;20.20;99.70;;;;;;5117465;28;20472;-64
2021/07/24 06:42:23;;;;;;;13.33;5.10;;;20.30;99.70;;;;;;5116246;28;20445;-64
2021/07/24 06:44:53;;;;;;;15.13;5.83;;;20.40;99.70;;;;;;5102252;28;20482;-62
2021/07/24 06:47:21;;;;;;;17.23;6.80;;;20.60;99.70;;;;;;5086920;28;21645;-63
2021/07/24 06:49:48;;;;;;;14.67;6.27;;;21.10;99.70;;;;;;5082618;28;20521;-61
2021/07/24 06:52:15;;;;;;;13.40;6.00;;;21.40;99.70;;;;;;5089394;28;20465;-65
2021/07/24 06:54:41;;;;;;;13.60;6.27;;;21.50;99.70;;;;;;5084356;28;20437;-63
2021/07/24 06:57:08;;;;;;;12.50;6.30;;;21.40;99.70;;;;;;5098841;28;20441;-63
2021/07/24 06:59:35;;;;;;;20.00;6.57;;;21.20;99.70;;;;;;5104770;28;20438;-64
2021/07/24 07:02:01;;;;;;;10.70;5.50;;;21.10;99.70;;;;;;5104736;28;20445;-63
2021/07/24 07:04:30;;;;;;;11.90;5.80;;;21.10;99.70;;;;;;5109662;28;20438;-62
2021/07/24 07:06:56;;;;;;;14.97;6.30;;;21.10;99.70;;;;;;5103269;28;20438;-62
2021/07/24 07:09:23;;;;;;;16.80;6.90;;;21.30;99.70;;;;;;5104560;28;20440;-64
2021/07/24 07:11:50;;;;;;;13.93;6.43;;;21.30;99.70;;;;;;5105733;28;20971;-63
2021/07/24 07:14:16;;;;;;;13.17;6.00;;;21.20;99.70;;;;;;5114351;28;20437;-63
2021/07/24 07:16:43;;;;;;;11.70;5.13;;;21.10;99.70;;;;;;5116571;28;20463;-63
2021/07/24 07:19:10;;;;;;;15.57;6.70;;;21.10;99.70;;;;;;5116588;28;20808;-63
2021/07/24 07:21:38;;;;;;;12.33;6.00;;;21.00;99.70;;;;;;5116449;28;20461;-64
2021/07/24 07:24:05;;;;;;;12.10;5.70;;;20.80;99.70;;;;;;5112648;28;20438;-63
2021/07/24 07:26:32;;;;;;;13.10;5.73;;;20.70;99.70;;;;;;5097248;28;20481;-65
2021/07/24 07:29:02;;;;;;;16.50;7.37;;;20.80;99.70;;;;;;5098165;28;20442;-63
2021/07/24 07:31:29;;;;;;;14.87;6.33;;;20.80;99.70;;;;;;5097721;28;20458;-64
2021/07/24 07:33:56;;;;;;;15.77;6.80;;;20.90;99.70;;;;;;5098478;28;20445;-65
2021/07/24 07:36:23;;;;;;;13.40;6.07;;;20.90;99.70;;;;;;5098547;28;20991;-64
2021/07/24 07:38:51;;;;;;;13.63;5.40;;;20.90;99.70;;;;;;5097120;28;20441;-64
2021/07/24 07:41:18;;;;;;;13.83;6.03;;;20.90;99.70;;;;;;5098170;28;20469;-63
2021/07/24 07:43:45;;;;;;;12.23;5.23;;;20.90;99.70;;;;;;5087560;28;20469;-63
2021/07/24 07:46:12;;;;;;;12.70;6.10;;;20.80;99.70;;;;;;5117493;28;20495;-65
2021/07/24 07:48:39;;;;;;;13.07;6.10;;;20.80;99.70;;;;;;5113892;28;20925;-63
2021/07/24 07:51:07;;;;;;;9.73;5.13;;;20.90;99.70;;;;;;5104678;28;20468;-63
2021/07/24 07:53:35;;;;;;;9.87;4.60;;;20.90;99.70;;;;;;5119069;28;20472;-64
2021/07/24 07:56:06;;;;;;;13.33;5.90;;;21.10;99.70;;;;;;5117482;28;20440;-62
2021/07/24 07:58:32;;;;;;;12.43;5.63;;;21.10;99.70;;;;;;5117342;28;20472;-64
2021/07/24 08:00:59;;;;;;;11.30;5.53;;;21.10;99.70;;;;;;5116355;28;20465;-64
2021/07/24 08:03:28;;;;;;;12.43;5.33;;;21.10;99.70;;;;;;5115039;28;21005;-63
2021/07/24 08:05:56;;;;;;;14.83;5.70;;;21.10;99.70;;;;;;5095817;28;20484;-64
2021/07/24 08:08:22;;;;;;;12.30;5.33;;;21.00;99.70;;;;;;5096330;28;20442;-65
2021/07/24 08:10:49;;;;;;;12.70;6.17;;;21.00;99.70;;;;;;5095921;28;20468;-63
2021/07/24 08:13:18;;;;;;;11.70;5.60;;;21.00;99.70;;;;;;5096106;28;20442;-65
2021/07/24 08:15:47;;;;;;;10.47;5.17;;;21.00;99.70;;;;;;5113974;28;20888;-64
2021/07/24 08:18:14;;;;;;;13.77;5.87;;;21.00;99.70;;;;;;5115864;28;20468;-63
2021/07/24 08:20:41;;;;;;;10.70;4.47;;;21.00;99.70;;;;;;5100947;28;20458;-65
2021/07/24 08:23:10;;;;;;;10.93;5.60;;;21.00;99.70;;;;;;5095798;28;20437;-64
2021/07/24 08:25:37;;;;;;;10.97;5.67;;;21.00;99.70;;;;;;5114544;28;20475;-64
2021/07/24 08:28:04;;;;;;;10.20;5.37;;;21.20;99.70;;;;;;5116760;28;20440;-64
2021/07/24 08:30:33;;;;;;;12.60;5.10;;;21.20;99.70;;;;;;5117081;28;20457;-64
2021/07/24 08:33:00;;;;;;;10.77;5.43;;;21.20;99.70;;;;;;5115872;28;20467;-64
2021/07/24 08:35:27;;;;;;;13.30;6.00;;;21.10;99.70;;;;;;5108142;28;20453;-64
2021/07/24 08:37:54;;;;;;;11.63;5.23;;;21.10;99.70;;;;;;5097320;28;20930;-64
2021/07/24 08:40:21;;;;;;;10.90;4.90;;;21.00;99.70;;;;;;5075794;28;20581;-64
2021/07/24 08:42:47;;;;;;;12.27;5.83;;;21.00;99.70;;;;;;5089675;28;20441;-64
2021/07/24 08:45:16;;;;;;;12.23;5.40;;;21.10;99.70;;;;;;5115153;28;20851;-64
2021/07/24 08:47:44;;;;;;;13.30;5.70;;;21.20;99.70;;;;;;5117095;28;20440;-64
2021/07/24 08:50:13;;;;;;;14.77;5.80;;;21.30;99.70;;;;;;5116651;28;20465;-63
2021/07/24 08:52:40;;;;;;;10.53;5.10;;;21.50;99.70;;;;;;5099280;28;20453;-64
2021/07/24 08:55:08;;;;;;;11.10;5.13;;;21.70;99.70;;;;;;5091757;28;20449;-64
2021/07/24 08:57:40;;;;;;;11.27;5.00;;;21.80;99.70;;;;;;5110194;28;20445;-64
2021/07/24 09:00:10;;;;;;;13.27;5.00;;;22.00;99.70;;;;;;5113845;28;20465;-64
2021/07/24 09:02:38;;;;;;;14.50;5.70;;;22.20;99.70;;;;;;5096016;28;20551;-64
2021/07/24 09:05:09;;;;;;;10.53;5.33;;;22.30;99.70;;;;;;5095180;28;20441;-63
2021/07/24 09:07:39;;;;;;;9.53;4.37;;;22.30;99.70;;;;;;5094886;28;20441;-65
2021/07/24 09:10:07;;;;;;;13.90;5.60;;;22.40;99.70;;;;;;5114361;28;20461;-63
2021/07/24 09:12:36;;;;;;;15.27;6.17;;;22.50;99.70;;;;;;5119047;28;20445;-64
2021/07/24 09:15:03;;;;;;;12.90;5.37;;;22.60;99.70;;;;;;5099770;28;20503;-64
2021/07/24 09:17:30;;;;;;;11.20;5.03;;;22.70;99.70;;;;;;5079436;28;20443;-65
2021/07/24 09:19:57;;;;;;;15.40;5.60;;;23.00;99.70;;;;;;5078907;28;20462;-64
2021/07/24 09:22:33;;;;;;;13.73;6.33;;;23.10;99.70;;;;;;5079681;28;20830;-64
2021/07/24 09:25:10;;;;;;;11.23;5.20;;;23.10;99.70;;;;;;5099519;28;20444;-65
2021/07/24 09:27:38;;;;;;;11.10;5.30;;;23.10;99.70;;;;;;5100943;28;20488;-64
2021/07/24 09:30:06;;;;;;;14.17;5.93;;;23.20;99.70;;;;;;5100363;28;20469;-63
2021/07/24 09:32:33;;;;;;;11.77;4.83;;;23.40;99.70;;;;;;5100068;28;20442;-65
2021/07/24 09:35:00;;;;;;;10.20;5.00;;;23.40;99.70;;;;;;5109908;28;20441;-65
2021/07/24 09:37:27;;;;;;;11.60;5.17;;;23.40;99.70;;;;;;5121355;28;20440;-65
2021/07/24 09:39:57;;;;;;;13.77;5.80;;;23.40;99.70;;;;;;5121019;28;20469;-65
2021/07/24 09:42:32;;;;;;;11.80;5.20;;;23.60;99.70;;;;;;5122201;28;20435;-64
2021/07/24 09:45:07;;;;;;;9.73;4.83;;;23.90;99.70;;;;;;5112036;28;20441;-64
2021/07/24 09:47:34;;;;;;;10.07;4.93;;;24.50;99.70;;;;;;5100081;28;20439;-66
2021/07/24 09:50:11;;;;;;;9.37;4.50;;;24.70;99.70;;;;;;5100316;28;20466;-65
2021/07/24 09:52:49;;;;;;;11.90;5.20;;;25.10;99.70;;;;;;5099980;28;20441;-64
2021/07/24 09:55:22;;;;;;;15.47;5.30;;;25.30;99.70;;;;;;5101600;28;20199;-65
2021/07/24 09:57:50;;;;;;;10.10;5.17;;;25.40;99.70;;;;;;5100449;28;20217;-64
2021/07/24 10:00:25;;;;;;;8.70;5.03;;;25.60;99.70;;;;;;5098448;28;20230;-65
2021/07/24 10:03:00;;;;;;;10.10;5.10;;;26.00;99.70;;;;;;5098940;28;20194;-63
2021/07/24 10:05:37;;;;;;;9.67;4.90;;;26.10;99.70;;;;;;5111437;28;20583;-62
2021/07/24 10:08:06;;;;;;;9.90;5.07;;;26.10;99.70;;;;;;5119100;28;20202;-64
2021/07/24 10:10:37;;;;;;;9.53;5.40;;;26.00;99.70;;;;;;5118712;28;20616;-65
2021/07/24 10:13:07;;;;;;;10.73;5.00;;;25.90;99.70;;;;;;5118966;28;20198;-65
2021/07/24 10:15:39;;;;;;;11.47;5.50;;;25.90;99.70;;;;;;5118031;28;20206;-65
2021/07/24 10:18:07;;;;;;;10.63;5.30;;;25.90;99.70;;;;;;5117637;28;20205;-65
2021/07/24 10:20:36;;;;;;;12.53;5.00;;;25.70;99.70;;;;;;5118868;27;20705;-64
2021/07/24 10:23:03;;;;;;;12.80;5.30;;;25.50;99.70;;;;;;5118326;28;20202;-66
2021/07/24 10:25:30;;;;;;;9.80;5.87;;;25.40;99.70;;;;;;5104528;28;20543;-65
2021/07/24 10:28:00;;;;;;;8.90;4.77;;;25.60;99.70;;;;;;5098971;28;20448;-63
2021/07/24 10:30:29;;;;;;;11.77;4.60;;;25.70;99.70;;;;;;5098596;28;20457;-64
2021/07/24 10:32:59;;;;;;;11.80;5.30;;;25.80;99.70;;;;;;5100002;28;20449;-65
2021/07/24 10:35:39;;;;;;;12.07;5.00;;;25.80;99.70;;;;;;5110116;28;20847;-65
2021/07/24 10:38:30;;;;;;;10.47;5.50;;;25.70;99.70;;;;;;5118997;28;20440;-63
2021/07/24 10:41:12;;;;;;;11.13;5.37;;;25.50;99.70;;;;;;5119746;28;20496;-64
2021/07/24 10:44:00;;;;;;;10.90;5.20;;;25.50;99.70;;;;;;5118418;28;20451;-64
2021/07/24 10:47:10;;;;;;;10.87;4.77;;;25.50;99.70;;;;;;5098945;28;20541;-64
2021/07/24 10:49:57;;;;;;;8.63;4.70;;;25.40;99.70;;;;;;5098570;28;20940;-65
2021/07/24 10:52:24;;;;;;;14.00;5.20;;;25.30;99.70;;;;;;5099337;28;20457;-63
2021/07/24 10:55:14;;;;;;;10.77;5.23;;;25.30;99.70;;;;;;5105060;28;20451;-65
2021/07/24 10:58:14;;;;;;;11.07;5.50;;;25.20;99.70;;;;;;5119466;28;20449;-64
2021/07/24 11:00:53;;;;;;;12.13;5.57;;;25.30;99.70;;;;;;5028679;28;20452;-64
2021/07/24 11:03:33;;;;;;;12.23;5.73;;;25.20;99.70;;;;;;5036138;28;20977;-63
2021/07/24 11:05:59;;;;;;;11.33;5.27;;;25.40;99.70;;;;;;5089733;28;20483;-64
2021/07/24 11:09:09;;;;;;;10.10;5.10;;;25.40;99.70;;;;;;5119536;28;20447;-65
2021/07/24 11:11:40;;;;;;;11.80;4.80;;;25.50;99.70;;;;;;5120285;28;20464;-64
2021/07/24 11:14:07;;;;;;;10.07;4.50;;;25.60;99.70;;;;;;5120181;28;20475;-63
2021/07/24 11:17:14;;;;;;;8.07;4.53;;;25.70;99.70;;;;;;5079452;28;20430;-62
2021/07/24 11:19:43;;;;;;;7.87;4.47;;;25.80;99.70;;;;;;5078431;28;20453;-64
2021/07/24 11:22:14;;;;;;;8.07;3.77;;;25.70;99.70;;;;;;5079401;28;20442;-63
2021/07/24 11:24:42;;;;;;;8.30;4.10;;;25.80;99.70;;;;;;5088045;28;20509;-63
2021/07/24 11:27:09;;;;;;;9.00;4.10;;;25.70;99.70;;;;;;5120373;28;20476;-65
2021/07/24 11:29:38;;;;;;;7.70;3.80;;;25.60;99.70;;;;;;5119704;28;20440;-64
2021/07/24 11:32:06;;;;;;;8.90;3.60;;;25.40;99.70;;;;;;5120519;28;20455;-65
2021/07/24 11:34:34;;;;;;;7.60;3.53;;;25.40;99.70;;;;;;5116899;28;20974;-64
2021/07/24 11:37:02;;;;;;;9.57;4.20;;;25.30;99.70;;;;;;5100624;28;20429;-64
2021/07/24 11:39:31;;;;;;;8.67;4.20;;;25.30;99.70;;;;;;5097425;28;20464;-65
2021/07/24 11:41:58;;;;;;;9.70;4.47;;;25.30;99.70;;;;;;5096210;28;20450;-64
2021/07/24 11:44:26;;;;;;;6.60;3.83;;;25.10;99.70;;;;;;5095779;28;20979;-65
2021/07/24 11:46:57;;;;;;;8.37;4.20;;;24.90;99.70;;;;;;5084281;28;20493;-65
2021/07/24 11:49:24;;;;;;;7.57;3.83;;;24.70;99.70;;;;;;5075014;28;20461;-64
2021/07/24 11:51:51;;;;;;;7.80;3.30;;;24.60;99.70;;;;;;5104688;28;20559;-65
2021/07/24 11:54:32;;;;;;;7.40;4.27;;;24.50;99.70;;;;;;5116042;28;20490;-64
2021/07/24 11:57:00;;;;;;;10.10;3.60;;;24.60;99.70;;;;;;5113617;28;20822;-63
2021/07/24 11:59:28;;;;;;;7.47;3.33;;;24.60;99.70;;;;;;5112921;28;20504;-64
2021/07/24 12:01:55;;;;;;;6.70;3.40;;;24.70;99.70;;;;;;5101509;28;20445;-63
2021/07/24 12:04:22;;;;;;;6.50;3.30;;;24.80;99.70;;;;;;5095352;28;20446;-64
2021/07/24 12:06:53;;;;;;;7.40;3.77;;;25.10;99.70;;;;;;5096679;28;20481;-64
2021/07/24 12:09:20;;;;;;;9.97;3.77;;;25.40;99.70;;;;;;5096149;28;20446;-64
2021/07/24 12:11:54;;;;;;;6.90;3.20;;;25.40;99.70;;;;;;5112947;22;20498;-67
2021/07/24 12:14:23;;;;;;;6.63;3.23;;;25.50;99.70;;;;;;5085739;28;20445;-67
2021/07/24 12:17:03;;;;;;;7.43;3.43;;;25.60;99.70;;;;;;5088227;28;20932;-66
2021/07/24 12:19:36;;;;;;;6.43;3.40;;;25.70;99.70;;;;;;5090192;28;20869;-67
2021/07/24 12:22:16;;;;;;;8.33;3.73;;;25.80;99.70;;;;;;5089625;28;20522;-67
2021/07/24 12:24:45;;;;;;;6.57;3.60;;;25.90;99.70;;;;;;5058665;28;20454;-67
2021/07/24 12:27:15;;;;;;;5.97;3.43;;;26.00;99.50;;;;;;5049517;28;20483;-66
2021/07/24 12:29:50;;;;;;;6.43;3.20;;;26.00;99.70;;;;;;5049483;28;20435;-64
2021/07/24 12:32:17;;;;;;;8.40;3.93;;;25.90;99.70;;;;;;5045597;28;20494;-64
2021/07/24 12:34:46;;;;;;;7.83;3.30;;;25.80;99.70;;;;;;5048365;28;20451;-65
2021/07/24 12:37:32;;;;;;;8.00;3.70;;;25.90;99.50;;;;;;5047070;28;20534;-66
2021/07/24 12:40:16;;;;;;;6.30;3.37;;;26.10;97.20;;;;;;5054643;28;20822;-64
2021/07/24 12:42:44;;;;;;;5.50;3.27;;;26.30;97.80;;;;;;5057414;28;20443;-65
2021/07/24 12:45:25;;;;;;;6.43;3.10;;;26.30;96.30;;;;;;5053110;28;20447;-65
2021/07/24 12:47:52;;;;;;;7.20;3.60;;;26.10;99.70;;;;;;5053140;28;20833;-64
2021/07/24 12:50:19;;;;;;;8.90;3.57;;;26.10;99.20;;;;;;5053865;28;20754;-65
2021/07/24 12:52:48;;;;;;;8.03;3.57;;;25.90;99.70;;;;;;5059307;28;20450;-65